Time,TemperatureF,DewpointF,PressureIn,WindDirection,WindDirectionDegrees,WindSpeedMPH,WindSpeedGustMPH,Humidity,HourlyPrecipIn,Conditions,Clouds,dailyrainin,SoftwareType,DateUTC
2017-10-17 00:01:00,37.9,35.2,30.29,West,270,0.0,0.0,90,0.00,,,0.00,WeatherCatV2.42B15,2017-10-17 04:01:00,
2017-10-17 00:06:00,37.7,35.0,30.29,West,271,0.0,0.0,90,0.00,,,0.00,WeatherCatV2.42B15,2017-10-17 04:06:00,
2017-10-17 00:11:00,37.4,34.7,30.29,West,271,0.0,0.0,90,0.00,,,0.00,WeatherCatV2.42B15,2017-10-17 04:11:00,
2017-10-17 00:16:00,37.5,35.1,30.28,West,270,0.0,0.0,91,0.00,,,0.00,WeatherCatV2.42B15,2017-10-17 04:16:00,
2017-10-17 00:21:00,37.5,35.1,30.29,West,271,0.0,0.0,91,0.00,,,0.00,WeatherCatV2.42B15,2017-10-17 04:21:00,
2017-10-17 00:26:00,37.4,35.0,30.29,West,271,0.0,0.0,91,0.00,,,0.00,WeatherCatV2.42B15,2017-10-17 04:26:00,
2017-10-17 00:31:00,37.5,35.4,30.29,West,271,0.0,0.0,92,0.00,,,0.00,WeatherCatV2.42B15,2017-10-17 04:31:00,
2017-10-17 00:36:00,37.6,35.5,30.29,West,270,0.0,0.0,92,0.00,,,0.00,WeatherCatV2.42B15,2017-10-17 04:36:00,
2017-10-17 00:41:00,37.6,35.5,30.29,West,270,0.0,0.0,92,0.00,,,0.00,WeatherCatV2.42B15,2017-10-17 04:41:00,
2017-10-17 00:46:00,37.3,34.9,30.29,West,271,0.0,0.0,91,0.00,,,0.00,WeatherCatV2.42B15,2017-10-17 04:46:00,
2017-10-17 00:51:00,37.1,35.0,30.29,West,270,0.0,0.0,92,0.00,,,0.00,WeatherCatV2.42B15,2017-10-17 04:51:00,
2017-10-17 00:56:00,37.0,34.9,30.29,West,270,0.0,0.0,92,0.00,,,0.00,WeatherCatV2.42B15,2017-10-17 04:56:00,
2017-10-17 01:01:00,36.9,34.8,30.29,West,270,0.0,0.0,92,0.00,,,0.00,WeatherCatV2.42B15,2017-10-17 05:01:00,
2017-10-17 01:06:00,36.8,34.7,30.29,West,270,0.0,0.0,92,0.00,,,0.00,WeatherCatV2.42B15,2017-10-17 05:06:00,
2017-10-17 01:11:00,36.6,34.5,30.29,West,271,0.0,0.0,92,0.00,,,0.00,WeatherCatV2.42B15,2017-10-17 05:11:00,
2017-10-17 01:16:00,36.5,34.4,30.28,West,271,0.0,0.0,92,0.00,,,0.00,WeatherCatV2.42B15,2017-10-17 05:16:00,
2017-10-17 01:21:00,36.4,34.3,30.29,West,270,0.0,0.0,92,0.00,,,0.00,WeatherCatV2.42B15,2017-10-17 05:21:00,
2017-10-17 01:26:00,36.3,34.2,30.29,West,271,0.0,0.0,92,0.00,,,0.00,WeatherCatV2.42B15,2017-10-17 05:26:00,
2017-10-17 01:31:00,36.2,34.1,30.29,West,270,0.0,0.0,92,0.00,,,0.00,WeatherCatV2.42B15,2017-10-17 05:31:00,
2017-10-17 01:36:00,36.1,34.0,30.29,West,270,0.0,0.0,92,0.00,,,0.00,WeatherCatV2.42B15,2017-10-17 05:36:00,
2017-10-17 01:41:00,36.2,34.4,30.29,West,271,0.0,0.0,93,0.00,,,0.00,WeatherCatV2.42B15,2017-10-17 05:41:00,
2017-10-17 01:46:00,36.4,34.6,30.29,West,271,0.0,0.0,93,0.00,,,0.00,WeatherCatV2.42B15,2017-10-17 05:46:00,
2017-10-17 01:51:00,36.8,35.0,30.29,West,271,0.0,0.0,93,0.00,,,0.00,WeatherCatV2.42B15,2017-10-17 05:51:00,
2017-10-17 01:56:00,37.2,35.4,30.29,West,271,0.0,0.0,93,0.00,,,0.00,WeatherCatV2.42B15,2017-10-17 05:56:00,
2017-10-17 02:01:00,37.4,35.6,30.29,West,270,0.0,0.0,93,0.00,,,0.00,WeatherCatV2.42B15,2017-10-17 06:01:00,
2017-10-17 02:06:00,37.6,35.8,30.29,West,271,0.0,0.0,93,0.00,,,0.00,WeatherCatV2.42B15,2017-10-17 06:06:00,
2017-10-17 02:11:00,37.9,36.1,30.29,West,271,0.0,0.0,93,0.00,,,0.00,WeatherCatV2.42B15,2017-10-17 06:11:00,
2017-10-17 02:16:00,38.3,36.5,30.29,SSW,194,0.0,0.0,93,0.00,,,0.00,WeatherCatV2.42B15,2017-10-17 06:16:00,
2017-10-17 02:21:00,38.5,36.7,30.29,SSW,194,0.0,0.0,93,0.00,,,0.00,WeatherCatV2.42B15,2017-10-17 06:21:00,
2017-10-17 02:26:00,38.6,36.8,30.29,SSW,193,0.0,0.0,93,0.00,,,0.00,WeatherCatV2.42B15,2017-10-17 06:26:00,
2017-10-17 02:31:00,38.6,36.8,30.29,SSW,194,0.0,0.0,93,0.00,,,0.00,WeatherCatV2.42B15,2017-10-17 06:31:00,
2017-10-17 02:36:00,38.5,36.7,30.29,SSW,194,0.0,0.0,93,0.00,,,0.00,WeatherCatV2.42B15,2017-10-17 06:36:00,
2017-10-17 02:41:00,38.5,36.7,30.29,SSW,194,0.0,0.0,93,0.00,,,0.00,WeatherCatV2.42B15,2017-10-17 06:41:00,
2017-10-17 02:46:00,38.3,36.5,30.29,SSW,194,0.0,0.0,93,0.00,,,0.00,WeatherCatV2.42B15,2017-10-17 06:46:00,
2017-10-17 02:51:00,38.0,36.2,30.29,SSW,193,0.0,0.0,93,0.00,,,0.00,WeatherCatV2.42B15,2017-10-17 06:51:00,
2017-10-17 02:57:00,37.9,36.1,30.29,SSW,194,0.0,0.0,93,0.00,,,0.00,WeatherCatV2.42B15,2017-10-17 06:57:00,
2017-10-17 03:02:00,38.0,36.2,30.29,SSW,194,0.0,0.0,93,0.00,,,0.00,WeatherCatV2.42B15,2017-10-17 07:02:00,
2017-10-17 03:07:00,38.2,36.6,30.29,SSW,194,0.0,0.0,94,0.00,,,0.00,WeatherCatV2.42B15,2017-10-17 07:07:00,
2017-10-17 03:12:00,38.3,36.7,30.29,SSW,193,0.0,0.0,94,0.00,,,0.00,WeatherCatV2.42B15,2017-10-17 07:12:00,
2017-10-17 03:15:00,38.3,36.7,30.29,SSW,194,0.0,0.0,94,0.00,,,0.00,WeatherCatV2.42B15,2017-10-17 07:15:00,
2017-10-17 03:20:00,38.5,36.9,30.29,ENE,71,0.0,0.0,94,0.00,,,0.00,WeatherCatV2.42B15,2017-10-17 07:20:00,
2017-10-17 03:25:00,38.6,37.0,30.29,East,83,0.0,0.0,94,0.00,,,0.00,WeatherCatV2.42B15,2017-10-17 07:25:00,
2017-10-17 03:30:00,38.9,37.3,30.28,South,171,0.0,0.0,94,0.00,,,0.00,WeatherCatV2.42B15,2017-10-17 07:30:00,
2017-10-17 03:35:00,39.2,37.6,30.28,South,169,0.0,0.0,94,0.00,,,0.00,WeatherCatV2.42B15,2017-10-17 07:35:00,
2017-10-17 03:40:00,39.5,38.2,30.28,SW,234,0.0,0.0,95,0.00,,,0.00,WeatherCatV2.42B15,2017-10-17 07:40:00,
2017-10-17 03:45:00,39.8,38.5,30.28,ESE,123,0.0,0.0,95,0.00,,,0.00,WeatherCatV2.42B15,2017-10-17 07:45:00,
2017-10-17 03:50:00,40.0,38.4,30.28,ESE,123,0.0,0.0,94,0.00,,,0.00,WeatherCatV2.42B15,2017-10-17 07:50:00,
2017-10-17 03:55:00,40.1,38.5,30.28,ESE,118,0.0,0.0,94,0.00,,,0.00,WeatherCatV2.42B15,2017-10-17 07:55:00,
2017-10-17 04:00:00,40.1,38.5,30.28,ESE,121,0.0,0.0,94,0.00,,,0.00,WeatherCatV2.42B15,2017-10-17 08:00:00,
2017-10-17 04:05:00,40.1,38.5,30.28,SSE,165,0.0,0.0,94,0.00,,,0.00,WeatherCatV2.42B15,2017-10-17 08:05:00,
2017-10-17 04:10:00,40.2,38.6,30.28,SSE,148,0.0,0.0,94,0.00,,,0.00,WeatherCatV2.42B15,2017-10-17 08:10:00,
2017-10-17 04:15:00,40.4,39.1,30.28,SE,129,0.0,0.0,95,0.00,,,0.00,WeatherCatV2.42B15,2017-10-17 08:15:00,
2017-10-17 04:20:00,40.5,38.9,30.28,SE,132,0.0,0.0,94,0.00,,,0.00,WeatherCatV2.42B15,2017-10-17 08:20:00,
2017-10-17 04:25:00,40.7,39.1,30.28,SSW,192,0.0,0.0,94,0.00,,,0.00,WeatherCatV2.42B15,2017-10-17 08:25:00,
2017-10-17 04:30:00,40.7,39.1,30.28,SSE,156,0.0,0.0,94,0.00,,,0.00,WeatherCatV2.42B15,2017-10-17 08:30:00,
2017-10-17 04:35:00,40.8,39.2,30.28,South,170,0.0,0.0,94,0.00,,,0.00,WeatherCatV2.42B15,2017-10-17 08:35:00,
2017-10-17 04:40:00,40.7,39.1,30.28,South,170,0.0,0.0,94,0.00,,,0.00,WeatherCatV2.42B15,2017-10-17 08:40:00,
2017-10-17 04:45:00,40.4,38.8,30.28,South,170,0.0,0.0,94,0.00,,,0.00,WeatherCatV2.42B15,2017-10-17 08:45:00,
2017-10-17 04:50:00,40.3,38.7,30.28,South,173,0.0,0.0,94,0.00,,,0.00,WeatherCatV2.42B15,2017-10-17 08:50:00,
2017-10-17 04:55:00,40.3,38.7,30.28,South,173,0.0,0.0,94,0.00,,,0.00,WeatherCatV2.42B15,2017-10-17 08:55:00,
2017-10-17 05:00:00,40.3,38.7,30.28,SE,136,0.0,0.0,94,0.00,,,0.00,WeatherCatV2.42B15,2017-10-17 09:00:00,
2017-10-17 05:05:00,40.5,38.9,30.28,SE,136,0.0,0.0,94,0.00,,,0.00,WeatherCatV2.42B15,2017-10-17 09:05:00,
2017-10-17 05:08:00,40.5,38.9,30.28,SE,136,0.0,0.0,94,0.00,,,0.00,WeatherCatV2.42B15,2017-10-17 09:08:00,
2017-10-17 05:13:00,40.5,38.9,30.28,SE,136,0.0,0.0,94,0.00,,,0.00,WeatherCatV2.42B15,2017-10-17 09:13:00,
2017-10-17 05:18:00,40.3,38.7,30.28,SE,136,0.0,0.0,94,0.00,,,0.00,WeatherCatV2.42B15,2017-10-17 09:18:00,
2017-10-17 05:23:00,40.2,38.6,30.28,SE,136,0.0,0.0,94,0.00,,,0.00,WeatherCatV2.42B15,2017-10-17 09:23:00,
2017-10-17 05:28:00,40.2,38.6,30.28,SE,136,0.0,0.0,94,0.00,,,0.00,WeatherCatV2.42B15,2017-10-17 09:28:00,
2017-10-17 05:33:00,40.2,38.6,30.28,SE,136,0.0,0.0,94,0.00,,,0.00,WeatherCatV2.42B15,2017-10-17 09:33:00,
2017-10-17 05:38:00,40.1,38.5,30.28,SE,136,0.0,0.0,94,0.00,,,0.00,WeatherCatV2.42B15,2017-10-17 09:38:00,
2017-10-17 05:43:00,40.0,38.4,30.28,SE,136,0.0,0.0,94,0.00,,,0.00,WeatherCatV2.42B15,2017-10-17 09:43:00,
2017-10-17 05:48:00,40.1,38.5,30.28,SE,136,0.0,0.0,94,0.00,,,0.00,WeatherCatV2.42B15,2017-10-17 09:48:00,
2017-10-17 05:53:00,40.0,38.4,30.28,SE,136,0.0,0.0,94,0.00,,,0.00,WeatherCatV2.42B15,2017-10-17 09:53:00,
2017-10-17 05:58:00,40.0,38.4,30.28,SE,136,0.0,0.0,94,0.00,,,0.00,WeatherCatV2.42B15,2017-10-17 09:58:00,
2017-10-17 06:03:00,40.0,38.4,30.28,SE,124,0.0,0.0,94,0.00,,,0.00,WeatherCatV2.42B15,2017-10-17 10:03:00,
2017-10-17 06:08:00,40.2,38.9,30.28,SE,139,0.0,0.0,95,0.00,,,0.00,WeatherCatV2.42B15,2017-10-17 10:08:00,
2017-10-17 06:13:00,40.4,39.1,30.27,SE,139,0.0,0.0,95,0.00,,,0.00,WeatherCatV2.42B15,2017-10-17 10:13:00,
2017-10-17 06:18:00,40.5,39.2,30.27,SSE,154,0.0,0.0,95,0.00,,,0.00,WeatherCatV2.42B15,2017-10-17 10:18:00,
2017-10-17 06:23:00,40.6,39.3,30.27,WSW,251,0.0,0.0,95,0.00,,,0.00,WeatherCatV2.42B15,2017-10-17 10:23:00,
2017-10-17 06:28:00,40.6,39.0,30.27,South,173,0.0,0.0,94,0.00,,,0.00,WeatherCatV2.42B15,2017-10-17 10:28:00,
2017-10-17 06:34:00,40.7,39.1,30.27,SW,218,0.0,0.0,94,0.00,,,0.00,WeatherCatV2.42B15,2017-10-17 10:34:00,
2017-10-17 06:39:00,40.8,39.2,30.27,SSE,158,0.0,0.0,94,0.00,,,0.00,WeatherCatV2.42B15,2017-10-17 10:39:00,
2017-10-17 06:44:00,40.9,39.3,30.27,SSW,202,0.0,0.0,94,0.00,,,0.00,WeatherCatV2.42B15,2017-10-17 10:44:00,
2017-10-17 06:49:00,40.9,39.3,30.27,SW,230,0.0,0.0,94,0.00,,,0.00,WeatherCatV2.42B15,2017-10-17 10:49:00,
2017-10-17 06:54:00,41.0,39.4,30.27,SSE,150,0.0,0.0,94,0.00,,,0.00,WeatherCatV2.42B15,2017-10-17 10:54:00,
2017-10-17 06:59:00,41.0,39.4,30.27,SE,130,0.0,0.0,94,0.00,,,0.00,WeatherCatV2.42B15,2017-10-17 10:59:00,
2017-10-17 07:04:00,41.0,39.4,30.27,SE,124,0.0,0.0,94,0.00,,,0.00,WeatherCatV2.42B15,2017-10-17 11:04:00,
2017-10-17 07:09:00,41.0,39.4,30.27,SSW,204,0.0,0.0,94,0.00,,,0.00,WeatherCatV2.42B15,2017-10-17 11:09:00,
2017-10-17 07:14:00,41.1,39.5,30.27,SW,232,0.0,0.0,94,0.00,,,0.00,WeatherCatV2.42B15,2017-10-17 11:14:00,
2017-10-17 07:19:00,41.1,39.5,30.27,ESE,115,0.0,0.0,94,0.00,,,0.00,WeatherCatV2.42B15,2017-10-17 11:19:00,
2017-10-17 07:24:00,41.1,39.5,30.27,SE,145,0.0,0.0,94,0.00,,,0.00,WeatherCatV2.42B15,2017-10-17 11:24:00,
2017-10-17 07:29:00,41.1,39.2,30.27,SE,140,0.0,0.0,93,0.00,,,0.00,WeatherCatV2.42B15,2017-10-17 11:29:00,
2017-10-17 07:34:00,41.1,39.2,30.27,SE,136,0.0,0.0,93,0.00,,,0.00,WeatherCatV2.42B15,2017-10-17 11:34:00,
2017-10-17 07:39:00,41.1,39.2,30.27,SW,225,0.0,0.0,93,0.00,,,0.00,WeatherCatV2.42B15,2017-10-17 11:39:00,
2017-10-17 07:44:00,41.1,39.2,30.27,SSE,167,0.0,1.0,93,0.00,,,0.00,WeatherCatV2.42B15,2017-10-17 11:44:00,
2017-10-17 07:49:00,41.2,39.3,30.26,SE,134,0.0,0.0,93,0.00,,,0.00,WeatherCatV2.42B15,2017-10-17 11:49:00,
2017-10-17 07:54:00,41.3,39.4,30.27,SE,139,0.0,0.0,93,0.00,,,0.00,WeatherCatV2.42B15,2017-10-17 11:54:00,
2017-10-17 07:59:00,41.4,39.5,30.27,SW,230,0.0,0.0,93,0.00,,,0.00,WeatherCatV2.42B15,2017-10-17 11:59:00,
2017-10-17 08:04:00,41.4,39.5,30.27,NW,318,0.0,0.0,93,0.00,,,0.00,WeatherCatV2.42B15,2017-10-17 12:04:00,
2017-10-17 08:09:00,41.4,39.5,30.27,SE,135,0.0,0.0,93,0.00,,,0.00,WeatherCatV2.42B15,2017-10-17 12:09:00,
2017-10-17 08:14:00,41.4,39.2,30.27,SW,219,0.0,0.0,92,0.00,,,0.00,WeatherCatV2.42B15,2017-10-17 12:14:00,
2017-10-17 08:19:00,41.5,39.3,30.27,SW,214,0.0,0.0,92,0.00,,,0.00,WeatherCatV2.42B15,2017-10-17 12:19:00,
2017-10-17 08:24:00,41.5,39.3,30.27,NNE,14,0.0,0.0,92,0.00,,,0.00,WeatherCatV2.42B15,2017-10-17 12:24:00,
2017-10-17 08:29:00,41.6,39.5,30.27,SSE,150,0.0,0.0,92,0.00,,,0.00,WeatherCatV2.42B15,2017-10-17 12:29:00,
2017-10-17 08:34:00,41.8,39.7,30.27,SW,226,0.0,0.0,92,0.00,,,0.00,WeatherCatV2.42B15,2017-10-17 12:34:00,
2017-10-17 08:39:00,42.2,40.0,30.27,SSE,155,0.0,1.0,92,0.00,,,0.00,WeatherCatV2.42B15,2017-10-17 12:39:00,
2017-10-17 08:44:00,42.5,40.3,30.27,South,182,0.0,1.0,92,0.00,,,0.00,WeatherCatV2.42B15,2017-10-17 12:44:00,
2017-10-17 08:49:00,42.9,40.7,30.27,SSE,148,0.0,1.0,92,0.00,,,0.00,WeatherCatV2.42B15,2017-10-17 12:49:00,
2017-10-17 08:54:00,43.5,41.3,30.27,SSE,155,0.0,1.0,92,0.00,,,0.00,WeatherCatV2.42B15,2017-10-17 12:54:00,
2017-10-17 08:59:00,44.3,41.8,30.27,SSE,154,0.0,1.0,91,0.00,,,0.00,WeatherCatV2.42B15,2017-10-17 12:59:00,
2017-10-17 09:04:00,45.1,42.3,30.27,SSE,153,0.0,2.0,90,0.00,,,0.00,WeatherCatV2.42B15,2017-10-17 13:04:00,
2017-10-17 09:09:00,45.9,42.8,30.27,SSE,153,0.0,2.0,89,0.00,,,0.00,WeatherCatV2.42B15,2017-10-17 13:09:00,
2017-10-17 09:14:00,46.8,43.4,30.27,NNE,20,0.0,1.0,88,0.00,,,0.00,WeatherCatV2.42B15,2017-10-17 13:14:00,
2017-10-17 09:19:00,47.6,43.6,30.27,SSE,153,0.0,3.0,86,0.00,,,0.00,WeatherCatV2.42B15,2017-10-17 13:19:00,
2017-10-17 09:25:00,48.1,43.5,30.27,SSE,154,0.0,1.0,84,0.00,,,0.00,WeatherCatV2.42B15,2017-10-17 13:25:00,
2017-10-17 09:29:00,48.8,43.5,30.27,SSE,154,3.0,4.0,82,0.00,,,0.00,WeatherCatV2.42B15,2017-10-17 13:29:00,
2017-10-17 09:34:00,49.3,43.4,30.27,SSE,154,0.0,0.0,80,0.00,,,0.00,WeatherCatV2.42B15,2017-10-17 13:34:00,
2017-10-17 09:39:00,50.0,43.1,30.27,SSE,153,1.0,4.0,77,0.00,,,0.00,WeatherCatV2.42B15,2017-10-17 13:39:00,
2017-10-17 09:44:00,50.5,43.2,30.26,ESE,123,0.0,3.0,76,0.00,,,0.00,WeatherCatV2.42B15,2017-10-17 13:44:00,
2017-10-17 09:49:00,50.9,42.9,30.26,SSE,154,1.0,1.0,74,0.00,,,0.00,WeatherCatV2.42B15,2017-10-17 13:49:00,
2017-10-17 09:54:00,51.5,43.5,30.27,SSE,155,0.0,0.0,74,0.00,,,0.00,WeatherCatV2.42B15,2017-10-17 13:54:00,
2017-10-17 09:59:00,52.0,43.3,30.26,SSE,153,1.0,6.0,72,0.00,,,0.00,WeatherCatV2.42B15,2017-10-17 13:59:00,
2017-10-17 10:04:00,52.6,43.5,30.26,WSW,245,2.0,6.0,71,0.00,,,0.00,WeatherCatV2.42B15,2017-10-17 14:04:00,
2017-10-17 10:09:00,53.0,43.1,30.26,SSE,155,1.0,2.0,69,0.00,,,0.00,WeatherCatV2.42B15,2017-10-17 14:09:00,
2017-10-17 10:14:00,53.4,43.1,30.26,SSE,155,1.0,5.0,68,0.00,,,0.00,WeatherCatV2.42B15,2017-10-17 14:14:00,
2017-10-17 10:19:00,53.7,43.4,30.26,NW,307,2.0,2.0,68,0.00,,,0.00,WeatherCatV2.42B15,2017-10-17 14:19:00,
2017-10-17 10:25:00,53.8,43.1,30.26,SSE,153,2.0,3.0,67,0.00,,,0.00,WeatherCatV2.42B15,2017-10-17 14:25:00,
2017-10-17 10:29:00,54.3,42.8,30.26,North,352,0.0,3.0,65,0.00,,,0.00,WeatherCatV2.42B15,2017-10-17 14:29:00,
2017-10-17 10:35:00,54.6,43.1,30.26,SW,231,0.0,4.0,65,0.00,,,0.00,WeatherCatV2.42B15,2017-10-17 14:35:00,
2017-10-17 10:40:00,55.1,43.1,30.26,SSE,153,3.0,3.0,64,0.00,,,0.00,WeatherCatV2.42B15,2017-10-17 14:40:00,
2017-10-17 10:45:00,55.5,43.1,30.26,SSE,154,0.0,4.0,63,0.00,,,0.00,WeatherCatV2.42B15,2017-10-17 14:45:00,
2017-10-17 10:55:00,56.5,44.5,30.26,SSE,152,0.0,3.0,64,0.00,,,0.00,WeatherCatV2.42B15,2017-10-17 14:55:00,
2017-10-17 11:00:00,57.0,44.1,30.26,SSE,154,1.0,3.0,62,0.00,,,0.00,WeatherCatV2.42B15,2017-10-17 15:00:00,
2017-10-17 11:05:00,57.5,44.2,30.25,SSE,154,0.0,2.0,61,0.00,,,0.00,WeatherCatV2.42B15,2017-10-17 15:05:00,
2017-10-17 11:10:00,57.5,43.7,30.25,SSE,153,0.0,6.0,60,0.00,,,0.00,WeatherCatV2.42B15,2017-10-17 15:10:00,
2017-10-17 11:15:00,57.6,43.4,30.25,WNW,297,2.0,5.0,59,0.00,,,0.00,WeatherCatV2.42B15,2017-10-17 15:15:00,
2017-10-17 11:20:00,57.9,43.7,30.25,SSE,153,0.0,8.0,59,0.00,,,0.00,WeatherCatV2.42B15,2017-10-17 15:20:00,
2017-10-17 11:25:00,58.4,44.1,30.26,SSE,153,1.0,5.0,59,0.00,,,0.00,WeatherCatV2.42B15,2017-10-17 15:25:00,
2017-10-17 11:30:00,58.9,44.2,30.25,WNW,300,3.0,8.0,58,0.00,,,0.00,WeatherCatV2.42B15,2017-10-17 15:30:00,
2017-10-17 11:35:00,59.0,44.2,30.25,NNW,340,2.0,7.0,58,0.00,,,0.00,WeatherCatV2.42B15,2017-10-17 15:35:00,
2017-10-17 11:40:00,59.2,44.0,30.25,NNW,340,2.0,7.0,57,0.00,,,0.00,WeatherCatV2.42B15,2017-10-17 15:40:00,
2017-10-17 11:45:00,59.6,43.9,30.25,South,184,3.0,6.0,56,0.00,,,0.00,WeatherCatV2.42B15,2017-10-17 15:45:00,
2017-10-17 11:50:00,60.3,45.0,30.25,SSE,162,0.0,5.0,57,0.00,,,0.00,WeatherCatV2.42B15,2017-10-17 15:50:00,
2017-10-17 11:55:00,60.5,44.2,30.25,WNW,295,6.0,8.0,55,0.00,,,0.00,WeatherCatV2.42B15,2017-10-17 15:55:00,
2017-10-17 12:00:00,60.9,44.1,30.24,North,6,2.0,9.0,54,0.00,,,0.00,WeatherCatV2.42B15,2017-10-17 16:00:00,
2017-10-17 12:05:00,61.1,44.3,30.24,South,185,3.0,4.0,54,0.00,,,0.00,WeatherCatV2.42B15,2017-10-17 16:05:00,
2017-10-17 12:10:00,61.4,44.6,30.24,SSW,195,6.0,8.0,54,0.00,,,0.00,WeatherCatV2.42B15,2017-10-17 16:10:00,
2017-10-17 12:15:00,61.8,45.5,30.24,West,266,3.0,6.0,55,0.00,,,0.00,WeatherCatV2.42B15,2017-10-17 16:15:00,
2017-10-17 12:20:00,62.2,45.3,30.23,West,274,0.0,8.0,54,0.00,,,0.00,WeatherCatV2.42B15,2017-10-17 16:20:00,
2017-10-17 12:25:00,62.7,44.8,30.23,ESE,113,3.0,7.0,52,0.00,,,0.00,WeatherCatV2.42B15,2017-10-17 16:25:00,
2017-10-17 12:30:00,63.2,45.3,30.23,SE,127,2.0,4.0,52,0.00,,,0.00,WeatherCatV2.42B15,2017-10-17 16:30:00,
2017-10-17 12:35:00,63.7,44.7,30.23,WNW,282,4.0,6.0,50,0.00,,,0.00,WeatherCatV2.42B15,2017-10-17 16:35:00,
2017-10-17 12:40:00,64.0,45.0,30.23,ESE,108,0.0,6.0,50,0.00,,,0.00,WeatherCatV2.42B15,2017-10-17 16:40:00,
2017-10-17 12:45:00,64.2,44.1,30.23,West,259,2.0,8.0,48,0.00,,,0.00,WeatherCatV2.42B15,2017-10-17 16:45:00,
2017-10-17 12:50:00,64.5,45.4,30.22,SE,124,4.0,7.0,50,0.00,,,0.00,WeatherCatV2.42B15,2017-10-17 16:50:00,
2017-10-17 12:55:00,64.9,45.3,30.22,East,100,1.0,6.0,49,0.00,,,0.00,WeatherCatV2.42B15,2017-10-17 16:55:00,
2017-10-17 13:00:00,64.7,44.0,30.22,SE,129,7.0,11.0,47,0.00,,,0.00,WeatherCatV2.42B15,2017-10-17 17:00:00,
2017-10-17 13:05:00,64.3,43.6,30.22,South,188,2.0,6.0,47,0.00,,,0.00,WeatherCatV2.42B15,2017-10-17 17:05:00,
2017-10-17 13:10:00,64.2,44.1,30.21,North,356,2.0,6.0,48,0.00,,,0.00,WeatherCatV2.42B15,2017-10-17 17:10:00,
2017-10-17 13:15:00,64.3,44.2,30.21,East,98,5.0,6.0,48,0.00,,,0.00,WeatherCatV2.42B15,2017-10-17 17:15:00,
2017-10-17 13:20:00,64.7,44.0,30.21,SE,132,1.0,9.0,47,0.00,,,0.00,WeatherCatV2.42B15,2017-10-17 17:20:00,
2017-10-17 13:25:00,65.0,44.3,30.21,WNW,294,3.0,5.0,47,0.00,,,0.00,WeatherCatV2.42B15,2017-10-17 17:25:00,
2017-10-17 13:30:00,65.6,45.4,30.21,NNW,343,1.0,6.0,48,0.00,,,0.00,WeatherCatV2.42B15,2017-10-17 17:30:00,
2017-10-17 13:35:00,66.2,44.8,30.21,NNE,25,0.0,8.0,46,0.00,,,0.00,WeatherCatV2.42B15,2017-10-17 17:35:00,
2017-10-17 13:41:00,66.6,45.2,30.20,SE,138,3.0,5.0,46,0.00,,,0.00,WeatherCatV2.42B15,2017-10-17 17:41:00,
2017-10-17 13:46:00,66.7,44.7,30.20,South,186,2.0,6.0,45,0.00,,,0.00,WeatherCatV2.42B15,2017-10-17 17:46:00,
2017-10-17 13:51:00,66.5,44.5,30.20,ENE,59,7.0,8.0,45,0.00,,,0.00,WeatherCatV2.42B15,2017-10-17 17:51:00,
2017-10-17 13:56:00,66.5,45.6,30.20,WNW,301,0.0,5.0,47,0.00,,,0.00,WeatherCatV2.42B15,2017-10-17 17:56:00,
2017-10-17 14:01:00,67.0,45.5,30.19,WSW,247,0.0,5.0,46,0.00,,,0.00,WeatherCatV2.42B15,2017-10-17 18:01:00,
2017-10-17 14:06:00,67.4,44.7,30.19,NW,304,2.0,5.0,44,0.00,,,0.00,WeatherCatV2.42B15,2017-10-17 18:06:00,
2017-10-17 14:11:00,67.6,45.5,30.19,West,278,0.0,1.0,45,0.00,,,0.00,WeatherCatV2.42B15,2017-10-17 18:11:00,
2017-10-17 14:16:00,68.0,45.9,30.19,SE,127,0.0,4.0,45,0.00,,,0.00,WeatherCatV2.42B15,2017-10-17 18:16:00,
2017-10-17 14:21:00,68.3,44.9,30.19,SSW,205,2.0,10.0,43,0.00,,,0.00,WeatherCatV2.42B15,2017-10-17 18:21:00,
2017-10-17 14:26:00,68.4,45.0,30.18,WNW,289,4.0,6.0,43,0.00,,,0.00,WeatherCatV2.42B15,2017-10-17 18:26:00,
2017-10-17 14:31:00,68.6,45.8,30.18,West,269,2.0,8.0,44,0.00,,,0.00,WeatherCatV2.42B15,2017-10-17 18:31:00,
2017-10-17 14:36:00,68.7,45.3,30.18,SW,233,0.0,6.0,43,0.00,,,0.00,WeatherCatV2.42B15,2017-10-17 18:36:00,
2017-10-17 14:41:00,68.8,44.8,30.17,North,356,1.0,9.0,42,0.00,,,0.00,WeatherCatV2.42B15,2017-10-17 18:41:00,
2017-10-17 14:46:00,69.0,44.9,30.17,WNW,300,0.0,8.0,42,0.00,,,0.00,WeatherCatV2.42B15,2017-10-17 18:46:00,
2017-10-17 14:51:00,69.0,45.6,30.17,WNW,297,0.0,2.0,43,0.00,,,0.00,WeatherCatV2.42B15,2017-10-17 18:51:00,
2017-10-17 14:56:00,69.5,45.4,30.17,East,84,2.0,2.0,42,0.00,,,0.00,WeatherCatV2.42B15,2017-10-17 18:56:00,
2017-10-17 15:01:00,69.4,45.3,30.17,ESE,103,0.0,3.0,42,0.00,,,0.00,WeatherCatV2.42B15,2017-10-17 19:01:00,
2017-10-17 15:06:00,69.4,45.3,30.16,West,271,0.0,7.0,42,0.00,,,0.00,WeatherCatV2.42B15,2017-10-17 19:06:00,
2017-10-17 15:11:00,69.5,45.4,30.16,East,99,0.0,5.0,42,0.00,,,0.00,WeatherCatV2.42B15,2017-10-17 19:11:00,
2017-10-17 15:16:00,69.8,44.4,30.16,NNW,333,0.0,10.0,40,0.00,,,0.00,WeatherCatV2.42B15,2017-10-17 19:16:00,
2017-10-17 15:21:00,70.0,45.2,30.16,East,101,2.0,6.0,41,0.00,,,0.00,WeatherCatV2.42B15,2017-10-17 19:21:00,
2017-10-17 15:26:00,70.2,45.4,30.16,ESE,113,2.0,3.0,41,0.00,,,0.00,WeatherCatV2.42B15,2017-10-17 19:26:00,
2017-10-17 15:31:00,70.0,45.2,30.16,SE,126,4.0,5.0,41,0.00,,,0.00,WeatherCatV2.42B15,2017-10-17 19:31:00,
2017-10-17 15:36:00,70.1,45.3,30.15,SE,144,1.0,9.0,41,0.00,,,0.00,WeatherCatV2.42B15,2017-10-17 19:36:00,
2017-10-17 15:41:00,70.2,44.7,30.15,SE,126,2.0,7.0,40,0.00,,,0.00,WeatherCatV2.42B15,2017-10-17 19:41:00,
2017-10-17 15:46:00,70.2,44.7,30.15,SW,230,5.0,12.0,40,0.00,,,0.00,WeatherCatV2.42B15,2017-10-17 19:46:00,
2017-10-17 15:51:00,70.3,44.8,30.15,WNW,282,0.0,2.0,40,0.00,,,0.00,WeatherCatV2.42B15,2017-10-17 19:51:00,
2017-10-17 15:56:00,70.2,44.7,30.15,NW,316,2.0,5.0,40,0.00,,,0.00,WeatherCatV2.42B15,2017-10-17 19:56:00,
2017-10-17 16:01:00,69.9,44.5,30.15,WNW,286,3.0,5.0,40,0.00,,,0.00,WeatherCatV2.42B15,2017-10-17 20:01:00,
2017-10-17 16:06:00,70.0,45.2,30.15,SE,139,2.0,10.0,41,0.00,,,0.00,WeatherCatV2.42B15,2017-10-17 20:06:00,
2017-10-17 16:11:00,70.4,44.9,30.15,NNW,345,3.0,7.0,40,0.00,,,0.00,WeatherCatV2.42B15,2017-10-17 20:11:00,
2017-10-17 16:16:00,70.6,45.1,30.15,NE,48,0.0,3.0,40,0.00,,,0.00,WeatherCatV2.42B15,2017-10-17 20:16:00,
2017-10-17 16:21:00,70.8,45.3,30.15,WNW,293,1.0,5.0,40,0.00,,,0.00,WeatherCatV2.42B15,2017-10-17 20:21:00,
2017-10-17 16:26:00,70.8,45.3,30.15,ESE,113,0.0,1.0,40,0.00,,,0.00,WeatherCatV2.42B15,2017-10-17 20:26:00,
2017-10-17 16:32:00,70.3,44.2,30.15,SE,124,4.0,7.0,39,0.00,,,0.00,WeatherCatV2.42B15,2017-10-17 20:32:00,
2017-10-17 16:37:00,70.3,44.8,30.15,East,99,0.0,4.0,40,0.00,,,0.00,WeatherCatV2.42B15,2017-10-17 20:37:00,
2017-10-17 16:42:00,70.3,44.8,30.15,SSW,200,3.0,7.0,40,0.00,,,0.00,WeatherCatV2.42B15,2017-10-17 20:42:00,
2017-10-17 16:47:00,70.1,44.7,30.15,SSE,147,0.0,7.0,40,0.00,,,0.00,WeatherCatV2.42B15,2017-10-17 20:47:00,
2017-10-17 16:52:00,69.6,44.2,30.15,West,271,2.0,8.0,40,0.00,,,0.00,WeatherCatV2.42B15,2017-10-17 20:52:00,
2017-10-17 16:57:00,69.0,44.3,30.15,South,172,0.0,3.0,41,0.00,,,0.00,WeatherCatV2.42B15,2017-10-17 20:57:00,
2017-10-17 17:02:00,68.7,44.0,30.15,West,280,1.0,6.0,41,0.00,,,0.00,WeatherCatV2.42B15,2017-10-17 21:02:00,
2017-10-17 17:07:00,68.3,43.7,30.15,SSE,159,3.0,7.0,41,0.00,,,0.00,WeatherCatV2.42B15,2017-10-17 21:07:00,
2017-10-17 17:12:00,68.1,44.1,30.15,West,268,0.0,5.0,42,0.00,,,0.00,WeatherCatV2.42B15,2017-10-17 21:12:00,
2017-10-17 17:17:00,68.0,44.7,30.15,ESE,107,3.0,4.0,43,0.00,,,0.00,WeatherCatV2.42B15,2017-10-17 21:17:00,
2017-10-17 17:23:00,67.8,44.5,30.15,SSW,198,3.0,6.0,43,0.00,,,0.00,WeatherCatV2.42B15,2017-10-17 21:23:00,
2017-10-17 17:28:00,67.6,44.3,30.14,SSW,209,4.0,5.0,43,0.00,,,0.00,WeatherCatV2.42B15,2017-10-17 21:28:00,
2017-10-17 17:33:00,67.6,44.3,30.15,South,188,4.0,13.0,43,0.00,,,0.00,WeatherCatV2.42B15,2017-10-17 21:33:00,
2017-10-17 17:38:00,67.5,44.2,30.15,East,86,0.0,2.0,43,0.00,,,0.00,WeatherCatV2.42B15,2017-10-17 21:38:00,
2017-10-17 17:43:00,67.3,44.0,30.15,West,269,0.0,5.0,43,0.00,,,0.00,WeatherCatV2.42B15,2017-10-17 21:43:00,
2017-10-17 17:48:00,67.2,44.5,30.15,SW,218,0.0,4.0,44,0.00,,,0.00,WeatherCatV2.42B15,2017-10-17 21:48:00,
2017-10-17 17:53:00,67.0,44.4,30.15,SW,220,1.0,6.0,44,0.00,,,0.00,WeatherCatV2.42B15,2017-10-17 21:53:00,
2017-10-17 17:58:00,66.9,44.3,30.15,West,270,0.0,7.0,44,0.00,,,0.00,WeatherCatV2.42B15,2017-10-17 21:58:00,
2017-10-17 18:03:00,66.7,44.1,30.15,WNW,287,3.0,3.0,44,0.00,,,0.00,WeatherCatV2.42B15,2017-10-17 22:03:00,
2017-10-17 18:08:00,66.5,44.5,30.15,SSE,156,1.0,2.0,45,0.00,,,0.00,WeatherCatV2.42B15,2017-10-17 22:08:00,
2017-10-17 18:13:00,66.3,44.3,30.15,WSW,246,2.0,3.0,45,0.00,,,0.00,WeatherCatV2.42B15,2017-10-17 22:13:00,
2017-10-17 18:18:00,66.1,44.1,30.15,WNW,283,2.0,2.0,45,0.00,,,0.00,WeatherCatV2.42B15,2017-10-17 22:18:00,
2017-10-17 18:23:00,65.9,44.0,30.15,SE,127,0.0,3.0,45,0.00,,,0.00,WeatherCatV2.42B15,2017-10-17 22:23:00,
2017-10-17 18:28:00,65.6,44.3,30.15,NW,323,3.0,3.0,46,0.00,,,0.00,WeatherCatV2.42B15,2017-10-17 22:28:00,
2017-10-17 18:33:00,65.2,43.9,30.15,South,169,0.0,1.0,46,0.00,,,0.00,WeatherCatV2.42B15,2017-10-17 22:33:00,
2017-10-17 18:38:00,64.9,44.2,30.16,SE,127,0.0,1.0,47,0.00,,,0.00,WeatherCatV2.42B15,2017-10-17 22:38:00,